Time;durP1;ratioP1;P1;durP2;ratioP2;P2;SDS_P1;SDS_P2;PMS_P1;PMS_P2;Temp;Humidity;BMP_temperature;BMP_pressure;BME280_temperature;BME280_humidity;BME280_pressure;Samples;Min_cycle;Max_cycle;Signal;HPM_P1;HPM_P2
2022/03/31 00:00:24;;;;;;;12.85;2.78;;;;;;;11.64;49.89;93948.31;5109099;27;20062;-51
2022/03/31 00:02:50;;;;;;;10.88;3.33;;;;;;;11.57;49.82;93953.00;5109348;27;20047;-51
2022/03/31 00:05:17;;;;;;;11.27;2.22;;;;;;;11.44;50.60;93953.50;5110024;27;20675;-48
2022/03/31 00:07:48;;;;;;;8.15;2.50;;;;;;;11.41;51.17;93948.78;5109484;27;20047;-47
2022/03/31 00:10:26;;;;;;;8.02;2.35;;;;;;;11.48;51.06;93960.53;5109052;27;20425;-48
2022/03/31 00:12:55;;;;;;;16.95;3.28;;;;;;;11.52;50.97;93960.78;5108466;27;20043;-46
2022/03/31 00:15:23;;;;;;;11.23;4.72;;;;;;;11.55;50.85;93944.66;5108900;27;20050;-50
2022/03/31 00:17:50;;;;;;;9.75;2.47;;;;;;;11.66;51.16;93961.88;5108198;27;20470;-50
2022/03/31 00:20:16;;;;;;;6.55;2.58;;;;;;;11.63;50.23;93941.53;5108370;27;20063;-49
2022/03/31 00:22:43;;;;;;;7.57;2.63;;;;;;;11.79;50.40;93965.81;5109315;27;20067;-47
2022/03/31 00:25:13;;;;;;;15.70;3.97;;;;;;;11.85;50.10;93958.78;5109000;27;20467;-47
2022/03/31 00:27:40;;;;;;;11.60;2.60;;;;;;;11.89;51.46;93938.94;5108792;27;20100;-46
2022/03/31 00:30:10;;;;;;;9.80;3.25;;;;;;;11.93;53.84;93957.50;5108163;27;20127;-50
2022/03/31 00:32:38;;;;;;;16.05;4.47;;;;;;;11.95;57.01;93942.38;5108653;27;20079;-49
2022/03/31 00:35:06;;;;;;;6.53;2.30;;;;;;;11.96;55.46;93944.72;5089405;28;20091;-46
2022/03/31 00:37:32;;;;;;;6.95;4.07;;;;;;;12.10;55.07;93949.41;5109670;28;20035;-46
2022/03/31 00:39:59;;;;;;;20.05;4.72;;;;;;;12.06;54.10;93959.59;5107720;28;20031;-46
2022/03/31 00:42:26;;;;;;;8.43;3.15;;;;;;;11.94;54.37;93946.81;5107552;28;20477;-52
2022/03/31 00:44:53;;;;;;;14.82;4.68;;;;;;;12.04;53.42;93961.69;5107775;28;20050;-46
2022/03/31 00:47:20;;;;;;;25.77;4.22;;;;;;;12.03;53.23;93960.91;5108229;28;20050;-50
2022/03/31 00:49:46;;;;;;;10.18;3.05;;;;;;;12.03;53.85;93945.25;5108732;28;20035;-45
2022/03/31 00:52:13;;;;;;;11.25;2.42;;;;;;;12.05;53.03;93937.94;5106648;28;20046;-50
2022/03/31 00:54:41;;;;;;;7.10;2.65;;;;;;;12.07;52.53;93940.28;5105822;28;20043;-48
2022/03/31 00:57:12;;;;;;;10.40;3.00;;;;;;;12.12;52.77;93947.31;5106585;28;20051;-48
2022/03/31 00:59:39;;;;;;;18.35;3.58;;;;;;;12.12;52.45;93955.16;5107118;28;20031;-48
2022/03/31 01:02:06;;;;;;;13.38;3.15;;;;;;;12.12;51.91;93952.53;5107168;28;20039;-46
2022/03/31 01:04:34;;;;;;;7.60;3.05;;;;;;;12.12;50.97;93955.16;5107733;28;20067;-47
2022/03/31 01:07:01;;;;;;;21.20;4.13;;;;;;;12.12;51.13;93931.66;5107652;28;20043;-49
2022/03/31 01:09:31;;;;;;;7.38;2.42;;;;;;;12.10;50.69;93934.56;5108382;28;20038;-47
2022/03/31 01:12:00;;;;;;;9.80;3.40;;;;;;;11.73;50.53;93887.81;5107730;28;20096;-50
2022/03/31 01:14:28;;;;;;;8.30;3.08;;;;;;;11.98;50.80;93921.75;5108230;28;20051;-49
2022/03/31 01:16:56;;;;;;;8.15;3.63;;;;;;;12.00;50.20;93919.66;5108130;28;20039;-48
2022/03/31 01:19:23;;;;;;;7.43;2.97;;;;;;;11.99;50.59;93917.31;5107487;28;20066;-48
2022/03/31 01:21:50;;;;;;;11.30;4.07;;;;;;;12.07;49.32;93934.28;5107547;28;20063;-50
2022/03/31 01:24:18;;;;;;;13.68;3.55;;;;;;;12.08;49.43;93930.63;5106976;28;20043;-48
2022/03/31 01:26:45;;;;;;;9.18;2.65;;;;;;;12.17;48.75;93921.22;5106896;28;20047;-47
2022/03/31 01:29:12;;;;;;;10.68;3.45;;;;;;;12.21;48.65;93924.91;5106757;28;20043;-46
2022/03/31 01:31:39;;;;;;;8.15;2.45;;;;;;;12.27;49.13;93923.06;5106100;28;20508;-47
2022/03/31 01:34:07;;;;;;;10.38;3.28;;;;;;;12.31;49.76;93927.47;5106798;28;20455;-48
2022/03/31 01:36:36;;;;;;;8.48;2.97;;;;;;;12.40;49.69;93928.50;5106821;28;20055;-47
2022/03/31 01:39:04;;;;;;;6.95;2.88;;;;;;;12.45;50.43;93909.44;5105432;28;20454;-51
2022/03/31 01:41:31;;;;;;;9.00;3.35;;;;;;;12.50;50.28;93913.88;5109000;27;20050;-47
2022/03/31 01:43:58;;;;;;;14.60;2.97;;;;;;;12.42;50.27;93904.75;5112425;27;20050;-48
2022/03/31 01:46:24;;;;;;;7.72;3.00;;;;;;;12.38;49.80;93924.59;5112009;27;20116;-46
2022/03/31 01:48:52;;;;;;;10.48;3.92;;;;;;;12.32;49.82;93929.06;5112217;27;20122;-49
2022/03/31 01:51:19;;;;;;;4.65;3.03;;;;;;;12.21;50.23;93924.91;5113431;27;20035;-47
2022/03/31 01:53:47;;;;;;;15.93;5.07;;;;;;;12.21;50.31;93914.44;5108713;27;20170;-47
2022/03/31 01:56:14;;;;;;;12.07;3.45;;;;;;;12.02;51.52;93907.13;5111912;27;20420;-51
2022/03/31 01:58:41;;;;;;;12.65;3.33;;;;;;;12.01;51.63;93916.03;5111698;27;20050;-48
2022/03/31 02:01:07;;;;;;;10.82;4.22;;;;;;;12.00;51.73;93914.44;5111329;27;20048;-51
2022/03/31 02:03:34;;;;;;;13.52;3.95;;;;;;;11.92;52.16;93917.59;5111935;27;20126;-47
2022/03/31 02:06:01;;;;;;;8.65;4.20;;;;;;;11.93;52.17;93898.28;5109866;27;20052;-49
2022/03/31 02:08:29;;;;;;;10.00;4.25;;;;;;;11.87;52.52;93896.69;5109284;27;20044;-47
2022/03/31 02:10:55;;;;;;;16.92;3.50;;;;;;;11.83;52.19;93895.66;5109552;27;20036;-47
2022/03/31 02:13:23;;;;;;;9.45;3.13;;;;;;;11.77;52.81;93894.06;5110133;27;20101;-46
2022/03/31 02:15:51;;;;;;;10.90;3.45;;;;;;;11.81;52.28;93910.75;5110242;27;20088;-45
2022/03/31 02:18:18;;;;;;;7.43;3.92;;;;;;;11.77;52.33;93889.63;5112392;27;20118;-47
2022/03/31 02:20:45;;;;;;;6.40;3.22;;;;;;;11.80;52.43;93893.56;5111568;27;20054;-48
2022/03/31 02:23:12;;;;;;;17.17;3.70;;;;;;;11.67;53.25;93895.63;5110994;27;20040;-46
2022/03/31 02:25:39;;;;;;;10.68;4.50;;;;;;;11.69;54.39;93898.00;5111648;27;20050;-47
2022/03/31 02:28:06;;;;;;;9.63;3.65;;;;;;;11.69;54.60;93898.00;5110665;27;20058;-50
2022/03/31 02:30:33;;;;;;;9.05;4.53;;;;;;;11.64;54.82;93885.72;5109209;27;20561;-49
2022/03/31 02:33:00;;;;;;;12.55;3.92;;;;;;;11.65;54.92;93876.84;5110783;27;20044;-46
2022/03/31 02:35:27;;;;;;;7.22;3.20;;;;;;;11.59;55.66;93888.31;5110525;27;20039;-45
2022/03/31 02:37:54;;;;;;;10.75;4.55;;;;;;;11.58;55.62;93886.75;5110971;27;20460;-48
2022/03/31 02:40:20;;;;;;;10.60;3.78;;;;;;;11.50;56.11;93884.66;5108219;27;20104;-46
2022/03/31 02:42:47;;;;;;;14.48;4.15;;;;;;;11.50;55.84;93878.66;5108161;27;20116;-46
2022/03/31 02:45:14;;;;;;;18.95;4.30;;;;;;;11.36;56.20;93873.16;5110061;27;20177;-44
2022/03/31 02:47:41;;;;;;;8.77;4.45;;;;;;;11.35;56.38;93897.69;5109655;27;20047;-46
2022/03/31 02:50:08;;;;;;;11.38;5.43;;;;;;;11.32;56.17;93882.56;5109582;27;20114;-46
2022/03/31 02:55:28;;;;;;;12.50;5.15;;;;;;;11.20;56.54;93886.19;5110432;27;20047;-47
2022/03/31 02:57:57;;;;;;;12.05;4.32;;;;;;;11.15;56.54;93865.31;5110250;27;20122;-47
2022/03/31 03:00:24;;;;;;;15.50;4.13;;;;;;;11.07;57.00;93881.44;5110280;27;20534;-45
2022/03/31 03:02:53;;;;;;;13.70;5.70;;;;;;;11.05;56.91;93883.53;5111334;27;20043;-46
2022/03/31 03:05:20;;;;;;;16.13;4.47;;;;;;;11.07;56.89;93866.63;5108947;27;20396;-46
2022/03/31 03:07:48;;;;;;;10.48;4.53;;;;;;;11.03;56.84;93869.97;5109250;27;20045;-45
2022/03/31 03:10:15;;;;;;;11.00;4.57;;;;;;;11.03;56.93;93864.78;5110245;27;20473;-46
2022/03/31 03:12:42;;;;;;;5.85;3.25;;;;;;;11.05;56.65;93873.88;5109928;27;20041;-50
2022/03/31 03:15:10;;;;;;;10.57;3.60;;;;;;;11.05;56.90;93860.09;5110547;27;20524;-51
2022/03/31 03:17:42;;;;;;;10.48;3.75;;;;;;;11.04;57.06;93871.56;5110031;27;20058;-47
2022/03/31 03:20:14;;;;;;;13.65;2.88;;;;;;;11.06;56.89;93864.25;5108362;27;20039;-44
2022/03/31 03:22:49;;;;;;;9.38;3.40;;;;;;;11.06;56.93;93879.91;5111123;27;20108;-45
2022/03/31 03:25:18;;;;;;;7.05;3.45;;;;;;;11.07;56.99;93871.03;5110049;27;20039;-45
2022/03/31 03:27:47;;;;;;;13.20;4.30;;;;;;;11.07;57.26;93863.22;5109806;27;20063;-48
2022/03/31 03:30:18;;;;;;;9.68;3.28;;;;;;;11.06;57.36;93859.06;5110007;27;20061;-48
2022/03/31 03:32:45;;;;;;;7.85;3.00;;;;;;;11.09;57.64;93848.09;5108018;27;20051;-48
2022/03/31 03:35:13;;;;;;;11.60;3.08;;;;;;;11.15;56.82;93857.50;5110760;27;20096;-46
2022/03/31 03:37:41;;;;;;;8.55;3.63;;;;;;;11.16;56.83;93859.06;5108972;27;20458;-45
2022/03/31 03:40:10;;;;;;;7.05;3.20;;;;;;;11.19;57.07;93858.53;5109273;27;20117;-45
2022/03/31 03:42:40;;;;;;;7.28;3.88;;;;;;;11.21;56.58;93843.44;5110393;27;20067;-49
2022/03/31 03:45:10;;;;;;;6.00;3.38;;;;;;;11.19;56.85;93847.34;5110308;27;20058;-47
2022/03/31 03:47:37;;;;;;;5.65;3.20;;;;;;;11.17;57.30;93833.78;5109430;27;20042;-48
2022/03/31 03:50:06;;;;;;;11.52;3.22;;;;;;;11.12;57.82;93842.38;5109420;27;20073;-45
2022/03/31 03:52:33;;;;;;;10.52;4.05;;;;;;;11.14;57.38;93821.28;5110406;27;20047;-50
2022/03/31 03:55:00;;;;;;;10.25;3.38;;;;;;;11.16;57.47;93814.75;5106489;27;20069;-45
2022/03/31 03:57:27;;;;;;;9.55;3.17;;;;;;;11.16;56.70;93817.34;5108979;27;20039;-50
2022/03/31 03:59:53;;;;;;;9.10;3.30;;;;;;;11.07;56.64;93792.84;5110551;27;20056;-51
2022/03/31 04:02:20;;;;;;;15.52;3.55;;;;;;;11.20;56.23;93813.22;5109600;27;20112;-48
2022/03/31 04:04:48;;;;;;;16.73;3.85;;;;;;;11.17;56.23;93818.16;5107938;27;20044;-46
2022/03/31 04:07:15;;;;;;;15.98;4.57;;;;;;;11.18;56.22;93815.31;5108608;27;20040;-44
2022/03/31 04:09:41;;;;;;;4.97;3.13;;;;;;;11.21;56.48;93819.19;5108577;27;20031;-45
2022/03/31 04:12:08;;;;;;;13.50;3.22;;;;;;;11.26;56.13;93848.66;5109395;27;20404;-45
2022/03/31 04:14:35;;;;;;;10.73;3.20;;;;;;;11.29;56.21;93848.16;5108508;27;20073;-48
2022/03/31 04:17:02;;;;;;;15.27;3.85;;;;;;;11.35;56.52;93841.13;5108194;27;20090;-50
2022/03/31 04:19:29;;;;;;;8.77;3.17;;;;;;;11.37;56.66;93838.25;5109971;27;20760;-49
2022/03/31 04:21:55;;;;;;;10.55;3.15;;;;;;;11.40;56.41;93840.34;5106662;27;20036;-47
2022/03/31 04:24:22;;;;;;;13.77;3.28;;;;;;;11.44;56.68;93844.00;5108137;27;20521;-44
2022/03/31 04:26:49;;;;;;;7.32;3.70;;;;;;;11.47;56.29;93864.34;5107463;27;20103;-49
2022/03/31 04:29:16;;;;;;;15.60;3.42;;;;;;;11.48;56.14;93866.66;5108571;28;20099;-45
2022/03/31 04:31:43;;;;;;;7.68;5.07;;;;;;;11.53;56.46;93872.94;5107814;27;20046;-49
2022/03/31 04:34:12;;;;;;;14.65;3.63;;;;;;;11.55;56.55;93870.84;5109120;28;20523;-48
2022/03/31 04:36:39;;;;;;;11.50;4.15;;;;;;;11.47;56.17;93856.50;5107370;28;20115;-48
2022/03/31 04:39:05;;;;;;;13.90;4.18;;;;;;;11.47;56.45;93853.91;5108679;28;20096;-48
2022/03/31 04:41:32;;;;;;;18.38;4.05;;;;;;;11.54;56.54;93859.66;5108373;28;20058;-49
2022/03/31 04:43:59;;;;;;;6.53;3.30;;;;;;;11.51;56.58;93875.81;5109167;28;20047;-45
2022/03/31 04:46:26;;;;;;;12.00;4.28;;;;;;;11.52;56.92;93866.94;5107142;28;20035;-47
2022/03/31 04:48:53;;;;;;;6.90;2.80;;;;;;;11.53;57.03;93884.16;5108786;28;20405;-47
2022/03/31 04:51:20;;;;;;;10.43;4.10;;;;;;;11.48;57.69;93886.75;5087909;28;20095;-51
2022/03/31 04:53:47;;;;;;;17.20;3.35;;;;;;;11.55;58.35;93889.09;5107455;28;20043;-49
2022/03/31 04:56:15;;;;;;;7.38;3.78;;;;;;;11.54;60.39;93888.34;5107797;28;20062;-47
2022/03/31 04:58:42;;;;;;;7.90;3.90;;;;;;;11.55;63.11;93892.50;5108105;28;20040;-49
2022/03/31 05:01:09;;;;;;;8.02;3.97;;;;;;;11.45;66.63;93895.88;5108175;28;20036;-46
2022/03/31 05:03:35;;;;;;;11.50;3.90;;;;;;;11.25;68.79;93891.41;5107372;28;20047;-51
2022/03/31 05:06:03;;;;;;;26.67;5.47;;;;;;;11.18;69.51;93882.25;5108054;28;20126;-48
2022/03/31 05:08:30;;;;;;;15.85;4.15;;;;;;;11.07;70.84;93886.66;5107468;28;20050;-52
2022/03/31 05:10:56;;;;;;;20.30;7.65;;;;;;;10.85;73.24;93879.81;5107311;28;20047;-46
2022/03/31 05:13:23;;;;;;;16.27;4.32;;;;;;;10.87;74.93;93888.16;5107114;28;20097;-46
2022/03/31 05:15:50;;;;;;;6.00;4.35;;;;;;;10.78;77.63;93894.91;5107705;27;20054;-47
2022/03/31 05:18:18;;;;;;;20.17;4.70;;;;;;;10.61;81.23;93894.31;5111686;27;20039;-47
2022/03/31 05:20:46;;;;;;;15.15;4.88;;;;;;;10.48;84.57;93890.34;5114026;27;20043;-47
2022/03/31 05:23:13;;;;;;;13.27;4.63;;;;;;;10.16;87.91;93878.16;5113013;27;20394;-46
2022/03/31 05:25:39;;;;;;;12.90;4.82;;;;;;;10.17;89.62;93890.13;5112570;27;20050;-47
2022/03/31 05:28:06;;;;;;;14.75;4.00;;;;;;;10.17;90.05;93879.72;5112725;27;20043;-48
2022/03/31 05:30:34;;;;;;;19.08;5.22;;;;;;;10.14;91.35;93891.44;5112950;27;20055;-46
2022/03/31 05:33:02;;;;;;;11.30;4.22;;;;;;;10.10;92.50;93894.75;5112053;27;20043;-46
2022/03/31 05:35:29;;;;;;;10.02;3.67;;;;;;;9.95;93.57;93895.44;5112707;27;20048;-47
2022/03/31 05:37:56;;;;;;;18.95;10.25;;;;;;;9.98;94.81;93907.97;5112226;27;20470;-46
2022/03/31 05:40:23;;;;;;;8.10;4.70;;;;;;;9.86;94.89;93878.75;5112085;27;20047;-48
2022/03/31 05:42:50;;;;;;;13.23;5.03;;;;;;;10.09;96.25;93919.22;5110641;27;21145;-48
2022/03/31 05:45:16;;;;;;;24.48;12.63;;;;;;;10.02;96.52;93908.25;5110853;27;20555;-50
2022/03/31 05:47:44;;;;;;;17.02;7.75;;;;;;;10.00;96.57;93920.72;5110850;27;20041;-46
2022/03/31 05:50:12;;;;;;;16.27;7.10;;;;;;;10.00;96.70;93921.50;5110735;27;20081;-47
2022/03/31 05:52:42;;;;;;;23.05;5.80;;;;;;;9.98;94.78;93920.97;5109712;27;20050;-48
2022/03/31 05:55:11;;;;;;;13.52;4.90;;;;;;;10.03;96.52;93938.41;5108249;27;20063;-48
2022/03/31 05:57:38;;;;;;;10.35;4.13;;;;;;;10.05;96.21;93938.97;5111797;27;20039;-52
2022/03/31 06:00:09;;;;;;;23.50;5.95;;;;;;;10.09;95.95;93932.25;5111534;27;20102;-48
2022/03/31 06:02:39;;;;;;;20.25;5.95;;;;;;;10.12;97.38;93940.31;5110521;27;20122;-47
2022/03/31 06:05:18;;;;;;;14.20;6.60;;;;;;;10.10;97.46;93921.59;5112543;27;20420;-47
2022/03/31 06:07:45;;;;;;;14.32;7.45;;;;;;;10.10;97.12;93895.56;5111933;27;20047;-50
2022/03/31 06:10:12;;;;;;;13.13;5.40;;;;;;;10.20;97.91;93899.25;5111010;27;20039;-48
2022/03/31 06:12:39;;;;;;;18.23;5.13;;;;;;;10.25;97.45;93894.09;5111890;27;20047;-46
2022/03/31 06:15:07;;;;;;;15.10;5.30;;;;;;;10.24;97.81;93874.31;5111283;27;20439;-48
2022/03/31 06:17:35;;;;;;;20.20;6.45;;;;;;;10.22;95.68;93858.16;5109472;27;20052;-48
2022/03/31 06:20:02;;;;;;;10.93;5.20;;;;;;;10.33;96.14;93868.41;5110633;27;20035;-48
2022/03/31 06:22:29;;;;;;;11.23;4.95;;;;;;;10.35;95.62;93849.91;5110341;27;20039;-48
2022/03/31 06:24:56;;;;;;;10.98;4.85;;;;;;;10.38;95.22;93844.22;5109434;27;20118;-49
2022/03/31 06:27:23;;;;;;;13.82;4.57;;;;;;;10.38;95.72;93839.00;5113056;27;20056;-50
2022/03/31 06:29:49;;;;;;;10.75;3.90;;;;;;;10.36;96.31;93846.28;5112044;27;20043;-50
2022/03/31 06:32:17;;;;;;;14.48;5.47;;;;;;;10.38;97.01;93859.06;5109805;27;20509;-52
2022/03/31 06:34:44;;;;;;;14.32;5.05;;;;;;;10.35;96.59;93859.56;5110322;27;20051;-47
2022/03/31 06:37:11;;;;;;;9.77;5.15;;;;;;;10.32;96.19;93855.66;5111002;27;20051;-50
2022/03/31 06:39:42;;;;;;;10.13;3.92;;;;;;;10.41;95.64;93867.16;5110586;27;20056;-46
2022/03/31 06:42:10;;;;;;;29.63;6.18;;;;;;;10.44;96.21;93864.03;5111244;27;20142;-49
2022/03/31 06:44:37;;;;;;;22.45;6.00;;;;;;;10.52;95.74;93871.34;5108425;27;20044;-47
2022/03/31 06:47:05;;;;;;;10.35;5.40;;;;;;;10.59;95.60;93880.75;5109929;27;20052;-48
2022/03/31 06:49:34;;;;;;;22.67;9.77;;;;;;;10.71;92.70;93889.13;5111724;27;20466;-50
2022/03/31 06:52:01;;;;;;;16.38;5.15;;;;;;;10.75;92.71;93874.59;5109912;27;20476;-47
2022/03/31 06:54:28;;;;;;;15.10;5.68;;;;;;;10.77;92.08;93864.69;5105796;27;20043;-47
2022/03/31 06:56:55;;;;;;;10.32;5.72;;;;;;;10.93;91.74;93875.16;5107572;27;20497;-49
2022/03/31 06:59:22;;;;;;;12.68;5.30;;;;;;;11.03;91.57;93890.81;5109263;27;20039;-47
2022/03/31 07:01:49;;;;;;;15.32;6.03;;;;;;;11.11;91.88;93887.72;5102852;27;20039;-50
2022/03/31 07:04:16;;;;;;;18.17;5.10;;;;;;;11.25;91.87;93886.19;5102736;27;20040;-51
2022/03/31 07:06:43;;;;;;;10.10;4.07;;;;;;;11.33;89.55;93874.47;5110547;27;20039;-49
2022/03/31 07:09:10;;;;;;;10.10;3.67;;;;;;;11.42;88.13;93883.34;5102270;27;20051;-51
2022/03/31 07:11:37;;;;;;;14.80;5.20;;;;;;;11.51;87.34;93875.81;5100526;27;20048;-45
2022/03/31 07:14:06;;;;;;;8.60;3.80;;;;;;;11.69;85.95;93881.56;5102257;27;20048;-47
2022/03/31 07:16:33;;;;;;;16.67;4.57;;;;;;;11.71;84.72;93879.47;5104505;27;20513;-49
2022/03/31 07:19:03;;;;;;;14.38;4.90;;;;;;;11.78;82.97;93859.91;5106024;27;20112;-47
2022/03/31 07:21:32;;;;;;;16.55;6.05;;;;;;;11.85;83.38;93875.31;5105265;27;20484;-47
2022/03/31 07:24:00;;;;;;;10.73;4.93;;;;;;;11.93;81.43;93887.84;5104614;27;20433;-50
2022/03/31 07:26:28;;;;;;;9.43;4.50;;;;;;;12.05;77.19;93870.09;5102849;27;20051;-49
2022/03/31 07:28:56;;;;;;;12.90;3.92;;;;;;;12.28;74.53;93873.19;5105873;27;20047;-50
2022/03/31 07:31:26;;;;;;;7.88;3.97;;;;;;;12.40;76.84;93870.28;5106942;27;20051;-51
2022/03/31 07:33:53;;;;;;;10.85;3.88;;;;;;;12.63;76.26;93868.91;5105428;27;20043;-47
2022/03/31 07:36:20;;;;;;;17.17;4.25;;;;;;;12.82;75.53;93869.88;5107067;27;20105;-48
2022/03/31 07:38:47;;;;;;;12.35;5.32;;;;;;;13.00;74.04;93867.72;5085250;28;20055;-49
2022/03/31 07:41:15;;;;;;;16.98;4.70;;;;;;;13.09;72.99;93866.09;5106968;27;20122;-48
2022/03/31 07:43:43;;;;;;;13.13;4.45;;;;;;;13.23;72.45;93866.28;5108874;27;20047;-50
2022/03/31 07:46:10;;;;;;;10.77;4.63;;;;;;;12.98;70.32;93885.47;5106593;27;20048;-47
2022/03/31 07:48:37;;;;;;;19.02;6.28;;;;;;;13.16;72.23;93839.66;5105648;27;20031;-47
2022/03/31 07:51:04;;;;;;;7.55;3.30;;;;;;;13.20;70.83;93851.91;5108934;27;20613;-52
2022/03/31 07:53:33;;;;;;;16.20;5.05;;;;;;;13.37;70.43;93882.19;5108964;27;20039;-47
2022/03/31 07:56:02;;;;;;;22.50;4.07;;;;;;;13.51;67.30;93900.66;5105927;27;20505;-47
2022/03/31 07:58:29;;;;;;;18.75;6.05;;;;;;;13.63;68.96;93855.84;5108179;27;20123;-47
2022/03/31 08:00:57;;;;;;;21.90;4.60;;;;;;;13.69;69.21;93858.16;5106362;27;20035;-47
2022/03/31 08:03:24;;;;;;;18.85;5.20;;;;;;;13.78;67.33;93855.72;5107575;27;20397;-49
2022/03/31 08:05:51;;;;;;;18.30;4.28;;;;;;;13.76;65.94;93889.25;5108305;27;20047;-48
2022/03/31 08:08:20;;;;;;;13.88;5.03;;;;;;;13.70;66.35;93890.31;5106128;27;20533;-48
2022/03/31 08:10:49;;;;;;;12.20;4.20;;;;;;;13.68;69.09;93834.88;5107195;27;20035;-47
2022/03/31 08:13:25;;;;;;;7.03;3.30;;;;;;;13.69;67.42;93879.09;5102643;27;20058;-50
2022/03/31 08:15:55;;;;;;;17.20;5.15;;;;;;;13.82;65.83;93858.59;5109156;27;20055;-49
2022/03/31 08:18:26;;;;;;;15.43;5.15;;;;;;;13.63;67.60;93879.38;5108454;27;20047;-45
2022/03/31 08:20:53;;;;;;;13.10;6.47;;;;;;;13.81;68.29;93823.78;5106835;27;20039;-50
2022/03/31 08:23:20;;;;;;;17.63;4.15;;;;;;;14.05;66.32;93849.22;5108247;27;20050;-48
2022/03/31 08:25:47;;;;;;;16.80;4.60;;;;;;;14.16;65.66;93861.16;5103845;27;20041;-50
2022/03/31 08:28:14;;;;;;;18.83;6.85;;;;;;;14.14;66.38;93868.50;5107541;27;20508;-49
2022/03/31 08:30:41;;;;;;;17.67;5.13;;;;;;;13.49;67.55;93869.56;5108573;27;20103;-50
2022/03/31 08:33:09;;;;;;;12.38;5.88;;;;;;;13.85;67.63;93871.13;5109216;28;20055;-48
2022/03/31 08:35:41;;;;;;;19.17;6.72;;;;;;;13.81;67.24;93870.91;5109309;27;20086;-47
2022/03/31 08:38:08;;;;;;;15.15;4.32;;;;;;;13.90;67.16;93806.44;5110924;28;20403;-47
2022/03/31 08:40:36;;;;;;;12.68;3.60;;;;;;;14.08;66.38;93838.19;5108009;28;20146;-47
2022/03/31 08:43:03;;;;;;;14.55;4.30;;;;;;;14.13;65.66;93830.28;5110721;28;20047;-47
2022/03/31 08:45:35;;;;;;;11.82;5.55;;;;;;;14.23;66.20;93840.66;5110821;28;20075;-47
2022/03/31 08:48:03;;;;;;;9.43;5.13;;;;;;;14.36;66.49;93838.44;5107997;28;20052;-52
2022/03/31 08:50:34;;;;;;;18.67;6.13;;;;;;;14.52;67.10;93831.97;5105762;28;20046;-48
2022/03/31 08:53:02;;;;;;;14.32;5.75;;;;;;;14.64;65.86;93840.25;5105180;27;20096;-49
2022/03/31 08:55:29;;;;;;;16.90;5.90;;;;;;;14.68;64.74;93838.63;5107887;27;20539;-48
2022/03/31 08:57:56;;;;;;;8.55;4.57;;;;;;;14.77;65.55;93817.81;5109417;27;20055;-49
2022/03/31 09:00:24;;;;;;;12.75;6.97;;;;;;;14.90;65.01;93832.84;5110618;27;20046;-47
2022/03/31 09:03:05;;;;;;;11.73;5.65;;;;;;;15.03;63.88;93831.38;5111105;27;20039;-48
2022/03/31 09:05:37;;;;;;;11.52;5.10;;;;;;;15.13;65.07;93824.47;5106496;27;20055;-54
2022/03/31 09:08:05;;;;;;;11.68;4.03;;;;;;;15.29;63.51;93834.44;5106228;27;20039;-51
2022/03/31 09:10:40;;;;;;;13.02;4.22;;;;;;;15.35;63.43;93805.50;5105815;27;20767;-51
2022/03/31 09:13:21;;;;;;;18.30;5.80;;;;;;;15.43;63.52;93821.38;5104288;27;20039;-47
2022/03/31 09:15:57;;;;;;;17.48;5.13;;;;;;;15.58;63.91;93814.34;5105156;27;20377;-51
2022/03/31 09:18:26;;;;;;;9.75;4.45;;;;;;;15.77;62.41;93791.50;5108648;27;20080;-50
2022/03/31 09:20:56;;;;;;;20.35;5.82;;;;;;;15.61;61.47;93798.00;5103297;27;20052;-50
2022/03/31 09:23:25;;;;;;;28.08;10.85;;;;;;;15.66;60.84;93817.09;5106909;27;20047;-51
2022/03/31 09:26:00;;;;;;;9.90;4.53;;;;;;;15.63;60.09;93801.16;5108125;27;20364;-48
2022/03/31 09:28:27;;;;;;;24.23;4.30;;;;;;;15.99;58.10;93811.06;5108078;27;20576;-46
2022/03/31 09:30:56;;;;;;;16.73;5.53;;;;;;;16.15;59.69;93809.75;5087161;27;20040;-49
2022/03/31 09:33:36;;;;;;;11.95;3.35;;;;;;;16.43;54.81;93794.75;5102594;27;20079;-46
2022/03/31 09:36:22;;;;;;;16.73;4.38;;;;;;;16.94;53.21;93795.63;5104944;27;20044;-49
2022/03/31 09:39:01;;;;;;;31.88;5.63;;;;;;;17.30;51.52;93796.69;5064430;27;20131;-48
2022/03/31 09:41:38;;;;;;;38.33;6.75;;;;;;;17.52;49.58;93774.84;5106523;27;20059;-47
2022/03/31 09:44:08;;;;;;;18.45;3.47;;;;;;;17.45;49.72;93756.06;5105444;27;20047;-52
2022/03/31 09:46:38;;;;;;;12.85;3.13;;;;;;;17.59;49.26;93740.97;5088447;27;20043;-48
2022/03/31 09:49:19;;;;;;;29.25;3.75;;;;;;;17.64;48.79;93738.22;5109343;27;20054;-48
2022/03/31 09:51:51;;;;;;;13.95;2.83;;;;;;;17.79;48.29;93713.38;5111488;27;20046;-48
2022/03/31 09:54:23;;;;;;;9.10;2.90;;;;;;;17.78;48.16;93717.84;5109774;27;20058;-47
2022/03/31 09:56:50;;;;;;;16.27;2.97;;;;;;;17.99;48.14;93727.91;5108870;27;20051;-48
2022/03/31 09:59:17;;;;;;;9.88;2.17;;;;;;;18.25;47.53;93735.88;5110846;27;20059;-48
2022/03/31 10:01:51;;;;;;;12.05;3.08;;;;;;;18.28;47.23;93719.47;5111115;27;20050;-50
2022/03/31 10:04:20;;;;;;;9.98;2.80;;;;;;;18.29;47.41;93720.22;5109344;27;20513;-51
2022/03/31 10:06:54;;;;;;;29.15;2.92;;;;;;;18.29;47.69;93709.69;5111223;27;20058;-52
2022/03/31 10:09:22;;;;;;;15.90;2.25;;;;;;;18.36;47.12;93715.28;5110700;27;20733;-47
2022/03/31 10:11:58;;;;;;;12.30;2.13;;;;;;;18.38;47.70;93702.59;5112099;27;20043;-46
2022/03/31 10:14:25;;;;;;;15.93;3.30;;;;;;;18.47;46.54;93710.50;5109236;27;20048;-47
2022/03/31 10:16:57;;;;;;;24.70;3.13;;;;;;;18.46;46.45;93667.56;5108955;27;20096;-48
2022/03/31 10:19:35;;;;;;;10.48;2.47;;;;;;;18.50;46.66;93650.03;5110274;27;20035;-49
2022/03/31 10:25:00;;;;;;;15.07;3.63;;;;;;;18.58;46.68;93674.09;5107863;27;20047;-50
2022/03/31 10:27:32;;;;;;;11.65;2.83;;;;;;;18.63;46.06;93684.47;5100791;27;20051;-50
2022/03/31 10:30:10;;;;;;;20.35;3.35;;;;;;;18.77;45.42;93677.19;5105486;27;20036;-49
2022/03/31 10:32:37;;;;;;;6.18;2.15;;;;;;;18.80;44.79;93683.69;5108633;27;20064;-47
2022/03/31 10:35:04;;;;;;;18.58;1.90;;;;;;;18.85;43.88;93652.72;5108232;27;20109;-51
2022/03/31 10:37:37;;;;;;;34.15;3.50;;;;;;;18.84;43.95;93671.50;5109715;27;20048;-48
2022/03/31 10:40:10;;;;;;;16.42;3.20;;;;;;;18.96;43.77;93694.59;5109347;27;20045;-50
2022/03/31 10:42:38;;;;;;;15.25;2.67;;;;;;;19.15;42.64;93676.59;5108787;27;20501;-52
2022/03/31 10:45:13;;;;;;;23.33;3.97;;;;;;;19.33;42.11;93666.00;5107609;27;20036;-52
2022/03/31 10:47:42;;;;;;;21.98;4.35;;;;;;;19.29;43.01;93640.22;5107407;27;20046;-51
2022/03/31 10:50:21;;;;;;;18.83;3.55;;;;;;;19.26;42.85;93656.69;5108719;27;20093;-52
2022/03/31 10:52:59;;;;;;;9.65;2.53;;;;;;;19.15;43.25;93639.63;5105639;27;20078;-50
2022/03/31 10:55:35;;;;;;;11.90;2.30;;;;;;;19.26;42.85;93625.00;5107077;27;20585;-50
2022/03/31 10:58:01;;;;;;;7.40;2.15;;;;;;;19.21;42.31;93646.31;5108879;27;20516;-50
2022/03/31 11:00:28;;;;;;;7.38;2.22;;;;;;;19.24;42.29;93632.47;5107262;27;20123;-51
2022/03/31 11:02:55;;;;;;;10.68;2.53;;;;;;;19.23;42.30;93604.53;5108034;27;20056;-51
2022/03/31 11:05:42;;;;;;;22.35;4.30;;;;;;;19.14;42.69;93629.38;5108539;27;20162;-47
2022/03/31 11:08:09;;;;;;;15.57;4.45;;;;;;;19.31;42.68;93652.34;5107426;27;20082;-49
2022/03/31 11:11:02;;;;;;;27.88;4.07;;;;;;;19.41;42.04;93646.72;5108741;27;20047;-47
2022/03/31 11:13:33;;;;;;;7.38;2.38;;;;;;;19.33;42.61;93650.16;5100689;27;20043;-51
2022/03/31 11:16:01;;;;;;;7.55;2.35;;;;;;;19.42;41.95;93650.91;5106236;27;20532;-49
2022/03/31 11:18:28;;;;;;;15.07;2.63;;;;;;;19.20;42.89;93657.94;5108833;27;20474;-48
2022/03/31 11:21:00;;;;;;;11.82;2.47;;;;;;;19.11;42.71;93680.94;5107591;27;20047;-49
2022/03/31 11:23:29;;;;;;;23.85;3.15;;;;;;;19.08;42.78;93689.47;5109165;27;20063;-48
2022/03/31 11:25:56;;;;;;;7.60;2.13;;;;;;;18.97;43.20;93686.38;5107045;27;20043;-51
2022/03/31 11:28:27;;;;;;;16.95;4.63;;;;;;;19.07;43.44;93664.19;5110734;27;20099;-50
2022/03/31 11:30:54;;;;;;;19.63;2.75;;;;;;;18.95;43.46;93661.41;5107796;27;20051;-51
2022/03/31 11:33:21;;;;;;;29.55;3.53;;;;;;;19.04;43.17;93670.09;5108715;27;20505;-49
2022/03/31 11:35:53;;;;;;;11.23;4.10;;;;;;;19.07;43.88;93669.47;5111020;27;20035;-50
2022/03/31 11:38:19;;;;;;;8.52;1.98;;;;;;;19.02;43.50;93688.09;5110225;27;20075;-50